Laird, Colorado
Current Conditions -  °F | °C
As of 6:35 PM on Sunday 23 Nov 2014 (Local Time) from K2V5 Reporting Station
Clear Clear  
Wind Chill: 24°   Ceiling: Unl
Heat Index: 31°   Visibility: 10mi
Dew Point:   Wind: 8mph
Humidity: 40%   Direction: 270°W
Pressure: 29.82"   Gusts: NA
Location:  40.1407°N, 102.218°W
Report Text: K2V5 240135Z AUTO 27007KT 10SM CLR 00/M13 A2982 RMK AO2 T10041126
Loading
Personal Weather Stations






























Interactive Weather Map New forecast layout! Learn more

10-Day Weather Forecast

Advertisements
Track Severe Weather on mobile